sensor_id;sensor_type;location;lat;lon;timestamp;P1;durP1;ratioP1;P2;durP2;ratioP2
54589;SDS011;40485;53.172;5.416;2022-09-01T00:01:40;4.47;;;0.95;;
54589;SDS011;40485;53.172;5.416;2022-09-01T00:04:08;5.00;;;0.88;;
54589;SDS011;40485;53.172;5.416;2022-09-01T00:06:36;4.57;;;0.75;;
54589;SDS011;40485;53.172;5.416;2022-09-01T00:09:03;3.47;;;0.73;;
54589;SDS011;40485;53.172;5.416;2022-09-01T00:11:31;6.10;;;0.90;;
54589;SDS011;40485;53.172;5.416;2022-09-01T00:13:58;6.07;;;0.80;;
54589;SDS011;40485;53.172;5.416;2022-09-01T00:16:25;2.10;;;0.88;;
54589;SDS011;40485;53.172;5.416;2022-09-01T00:18:52;3.38;;;0.70;;
54589;SDS011;40485;53.172;5.416;2022-09-01T00:21:21;9.15;;;0.93;;
54589;SDS011;40485;53.172;5.416;2022-09-01T00:23:50;7.47;;;1.02;;
54589;SDS011;40485;53.172;5.416;2022-09-01T00:26:16;2.03;;;0.70;;
54589;SDS011;40485;53.172;5.416;2022-09-01T00:28:41;2.05;;;0.60;;
54589;SDS011;40485;53.172;5.416;2022-09-01T00:31:07;3.38;;;0.88;;
54589;SDS011;40485;53.172;5.416;2022-09-01T00:33:35;3.40;;;1.00;;
54589;SDS011;40485;53.172;5.416;2022-09-01T00:36:01;3.75;;;0.90;;
54589;SDS011;40485;53.172;5.416;2022-09-01T00:38:29;5.35;;;0.95;;
54589;SDS011;40485;53.172;5.416;2022-09-01T00:40:55;5.28;;;0.90;;
54589;SDS011;40485;53.172;5.416;2022-09-01T00:43:23;3.58;;;0.90;;
54589;SDS011;40485;53.172;5.416;2022-09-01T00:46:03;4.43;;;1.05;;
54589;SDS011;40485;53.172;5.416;2022-09-01T00:48:32;3.67;;;0.70;;
54589;SDS011;40485;53.172;5.416;2022-09-01T00:50:59;4.60;;;0.90;;
54589;SDS011;40485;53.172;5.416;2022-09-01T00:53:25;6.32;;;1.02;;
54589;SDS011;40485;53.172;5.416;2022-09-01T00:55:51;6.25;;;1.00;;
54589;SDS011;40485;53.172;5.416;2022-09-01T00:58:17;2.83;;;0.80;;
54589;SDS011;40485;53.172;5.416;2022-09-01T01:00:42;5.10;;;1.08;;
54589;SDS011;40485;53.172;5.416;2022-09-01T01:03:12;2.90;;;0.60;;
54589;SDS011;40485;53.172;5.416;2022-09-01T01:05:42;4.85;;;0.90;;
54589;SDS011;40485;53.172;5.416;2022-09-01T01:08:12;4.90;;;1.08;;
54589;SDS011;40485;53.172;5.416;2022-09-01T01:10:42;3.60;;;0.85;;
54589;SDS011;40485;53.172;5.416;2022-09-01T01:13:08;4.10;;;0.80;;
54589;SDS011;40485;53.172;5.416;2022-09-01T01:15:37;3.70;;;1.02;;
54589;SDS011;40485;53.172;5.416;2022-09-01T01:18:08;3.20;;;1.13;;
54589;SDS011;40485;53.172;5.416;2022-09-01T01:20:40;1.60;;;0.90;;
54589;SDS011;40485;53.172;5.416;2022-09-01T01:25:53;3.22;;;0.82;;
54589;SDS011;40485;53.172;5.416;2022-09-01T01:28:23;2.13;;;0.70;;
54589;SDS011;40485;53.172;5.416;2022-09-01T01:30:58;5.18;;;1.02;;
54589;SDS011;40485;53.172;5.416;2022-09-01T01:33:28;3.60;;;0.80;;
54589;SDS011;40485;53.172;5.416;2022-09-01T01:35:56;3.05;;;0.90;;
54589;SDS011;40485;53.172;5.416;2022-09-01T01:38:23;3.20;;;0.70;;
54589;SDS011;40485;53.172;5.416;2022-09-01T01:40:51;3.78;;;1.10;;
54589;SDS011;40485;53.172;5.416;2022-09-01T01:43:17;1.80;;;0.73;;
54589;SDS011;40485;53.172;5.416;2022-09-01T01:45:47;3.03;;;1.00;;
54589;SDS011;40485;53.172;5.416;2022-09-01T01:48:16;1.15;;;0.60;;
54589;SDS011;40485;53.172;5.416;2022-09-01T01:50:46;2.58;;;0.80;;
54589;SDS011;40485;53.172;5.416;2022-09-01T01:53:13;3.47;;;1.08;;
54589;SDS011;40485;53.172;5.416;2022-09-01T01:55:41;2.33;;;0.95;;
54589;SDS011;40485;53.172;5.416;2022-09-01T01:58:07;3.85;;;0.70;;
54589;SDS011;40485;53.172;5.416;2022-09-01T02:00:36;3.92;;;0.82;;
54589;SDS011;40485;53.172;5.416;2022-09-01T02:03:02;4.40;;;0.73;;
54589;SDS011;40485;53.172;5.416;2022-09-01T02:05:30;2.65;;;0.90;;
54589;SDS011;40485;53.172;5.416;2022-09-01T02:07:59;2.63;;;0.65;;
54589;SDS011;40485;53.172;5.416;2022-09-01T02:10:32;2.78;;;0.77;;
54589;SDS011;40485;53.172;5.416;2022-09-01T02:13:02;3.50;;;1.75;;
54589;SDS011;40485;53.172;5.416;2022-09-01T02:15:32;3.30;;;0.85;;
54589;SDS011;40485;53.172;5.416;2022-09-01T02:18:07;1.63;;;0.77;;
54589;SDS011;40485;53.172;5.416;2022-09-01T02:20:45;1.65;;;0.65;;
54589;SDS011;40485;53.172;5.416;2022-09-01T02:23:13;2.90;;;0.80;;
54589;SDS011;40485;53.172;5.416;2022-09-01T02:25:43;1.67;;;0.60;;
54589;SDS011;40485;53.172;5.416;2022-09-01T02:28:13;2.10;;;0.70;;
54589;SDS011;40485;53.172;5.416;2022-09-01T02:30:43;1.23;;;0.60;;
54589;SDS011;40485;53.172;5.416;2022-09-01T02:33:12;1.52;;;0.95;;
54589;SDS011;40485;53.172;5.416;2022-09-01T02:35:53;1.98;;;0.70;;
54589;SDS011;40485;53.172;5.416;2022-09-01T02:38:21;3.25;;;0.90;;
54589;SDS011;40485;53.172;5.416;2022-09-01T02:40:50;1.80;;;0.80;;
54589;SDS011;40485;53.172;5.416;2022-09-01T02:43:16;3.30;;;0.80;;
54589;SDS011;40485;53.172;5.416;2022-09-01T02:45:45;1.42;;;0.70;;
54589;SDS011;40485;53.172;5.416;2022-09-01T02:48:28;2.03;;;0.90;;
54589;SDS011;40485;53.172;5.416;2022-09-01T02:51:05;3.95;;;0.82;;
54589;SDS011;40485;53.172;5.416;2022-09-01T02:53:35;1.45;;;0.75;;
54589;SDS011;40485;53.172;5.416;2022-09-01T02:56:03;2.70;;;0.70;;
54589;SDS011;40485;53.172;5.416;2022-09-01T02:58:33;1.60;;;0.60;;
54589;SDS011;40485;53.172;5.416;2022-09-01T03:01:09;3.55;;;0.75;;
54589;SDS011;40485;53.172;5.416;2022-09-01T03:04:00;1.20;;;0.73;;
54589;SDS011;40485;53.172;5.416;2022-09-01T03:06:30;1.60;;;0.73;;
54589;SDS011;40485;53.172;5.416;2022-09-01T03:08:58;1.33;;;0.63;;
54589;SDS011;40485;53.172;5.416;2022-09-01T03:11:25;1.05;;;0.70;;
54589;SDS011;40485;53.172;5.416;2022-09-01T03:13:53;1.58;;;0.68;;
54589;SDS011;40485;53.172;5.416;2022-09-01T03:16:18;2.22;;;0.70;;
54589;SDS011;40485;53.172;5.416;2022-09-01T03:18:46;1.00;;;0.68;;
54589;SDS011;40485;53.172;5.416;2022-09-01T03:21:13;4.30;;;1.00;;
54589;SDS011;40485;53.172;5.416;2022-09-01T03:23:41;3.40;;;1.30;;
54589;SDS011;40485;53.172;5.416;2022-09-01T03:26:08;2.42;;;0.80;;
54589;SDS011;40485;53.172;5.416;2022-09-01T03:28:34;2.05;;;1.10;;
54589;SDS011;40485;53.172;5.416;2022-09-01T03:31:02;5.43;;;0.70;;
54589;SDS011;40485;53.172;5.416;2022-09-01T03:33:28;5.55;;;0.93;;
54589;SDS011;40485;53.172;5.416;2022-09-01T03:35:54;2.45;;;1.17;;
54589;SDS011;40485;53.172;5.416;2022-09-01T03:38:21;1.20;;;0.60;;
54589;SDS011;40485;53.172;5.416;2022-09-01T03:40:49;0.95;;;0.60;;
54589;SDS011;40485;53.172;5.416;2022-09-01T03:43:17;1.13;;;0.80;;
54589;SDS011;40485;53.172;5.416;2022-09-01T03:45:44;1.10;;;0.70;;
54589;SDS011;40485;53.172;5.416;2022-09-01T03:48:10;1.00;;;0.80;;
54589;SDS011;40485;53.172;5.416;2022-09-01T03:50:40;2.05;;;0.80;;
54589;SDS011;40485;53.172;5.416;2022-09-01T03:53:10;1.50;;;0.80;;
54589;SDS011;40485;53.172;5.416;2022-09-01T03:55:38;1.15;;;0.80;;
54589;SDS011;40485;53.172;5.416;2022-09-01T03:58:05;3.80;;;0.88;;
54589;SDS011;40485;53.172;5.416;2022-09-01T04:00:36;1.45;;;0.70;;
54589;SDS011;40485;53.172;5.416;2022-09-01T04:03:05;1.67;;;0.93;;
54589;SDS011;40485;53.172;5.416;2022-09-01T04:05:32;2.72;;;0.95;;
54589;SDS011;40485;53.172;5.416;2022-09-01T04:07:59;3.80;;;0.60;;
54589;SDS011;40485;53.172;5.416;2022-09-01T04:10:32;1.88;;;0.73;;
54589;SDS011;40485;53.172;5.416;2022-09-01T04:12:59;4.22;;;0.88;;
54589;SDS011;40485;53.172;5.416;2022-09-01T04:15:25;1.83;;;0.57;;
54589;SDS011;40485;53.172;5.416;2022-09-01T04:17:52;2.20;;;0.90;;
54589;SDS011;40485;53.172;5.416;2022-09-01T04:20:44;3.45;;;0.80;;
54589;SDS011;40485;53.172;5.416;2022-09-01T04:23:30;2.55;;;0.80;;
54589;SDS011;40485;53.172;5.416;2022-09-01T04:26:05;1.65;;;0.60;;
54589;SDS011;40485;53.172;5.416;2022-09-01T04:28:42;2.08;;;0.80;;
54589;SDS011;40485;53.172;5.416;2022-09-01T04:31:11;0.70;;;0.68;;
54589;SDS011;40485;53.172;5.416;2022-09-01T04:33:41;1.55;;;0.80;;
54589;SDS011;40485;53.172;5.416;2022-09-01T04:36:26;2.25;;;0.90;;
54589;SDS011;40485;53.172;5.416;2022-09-01T04:38:58;1.98;;;0.75;;
54589;SDS011;40485;53.172;5.416;2022-09-01T04:41:27;2.50;;;1.00;;
54589;SDS011;40485;53.172;5.416;2022-09-01T04:43:56;4.25;;;0.45;;
54589;SDS011;40485;53.172;5.416;2022-09-01T04:46:24;0.50;;;0.50;;
54589;SDS011;40485;53.172;5.416;2022-09-01T04:48:52;1.75;;;0.80;;
54589;SDS011;40485;53.172;5.416;2022-09-01T04:51:18;1.20;;;0.50;;
54589;SDS011;40485;53.172;5.416;2022-09-01T04:53:44;3.17;;;0.80;;
54589;SDS011;40485;53.172;5.416;2022-09-01T04:56:13;1.33;;;0.80;;
54589;SDS011;40485;53.172;5.416;2022-09-01T04:58:44;4.90;;;0.68;;
54589;SDS011;40485;53.172;5.416;2022-09-01T05:01:18;2.25;;;0.70;;
54589;SDS011;40485;53.172;5.416;2022-09-01T05:03:46;0.93;;;0.43;;
54589;SDS011;40485;53.172;5.416;2022-09-01T05:06:21;2.40;;;0.60;;
54589;SDS011;40485;53.172;5.416;2022-09-01T05:08:46;2.05;;;0.70;;
54589;SDS011;40485;53.172;5.416;2022-09-01T05:11:12;1.10;;;0.80;;
54589;SDS011;40485;53.172;5.416;2022-09-01T05:13:40;2.42;;;0.70;;
54589;SDS011;40485;53.172;5.416;2022-09-01T05:16:09;3.40;;;0.60;;
54589;SDS011;40485;53.172;5.416;2022-09-01T05:18:37;3.20;;;1.00;;
54589;SDS011;40485;53.172;5.416;2022-09-01T05:21:06;5.45;;;1.08;;
54589;SDS011;40485;53.172;5.416;2022-09-01T05:23:36;1.13;;;0.70;;
54589;SDS011;40485;53.172;5.416;2022-09-01T05:26:04;3.33;;;0.80;;
54589;SDS011;40485;53.172;5.416;2022-09-01T05:28:39;2.33;;;0.80;;
54589;SDS011;40485;53.172;5.416;2022-09-01T05:31:05;3.17;;;0.75;;
54589;SDS011;40485;53.172;5.416;2022-09-01T05:33:31;5.00;;;0.88;;
54589;SDS011;40485;53.172;5.416;2022-09-01T05:35:58;3.20;;;1.08;;
54589;SDS011;40485;53.172;5.416;2022-09-01T05:38:25;4.13;;;1.27;;
54589;SDS011;40485;53.172;5.416;2022-09-01T05:40:57;2.58;;;1.00;;
54589;SDS011;40485;53.172;5.416;2022-09-01T05:43:27;3.20;;;1.00;;
54589;SDS011;40485;53.172;5.416;2022-09-01T05:45:55;6.10;;;1.00;;
54589;SDS011;40485;53.172;5.416;2022-09-01T05:48:25;3.63;;;0.85;;
54589;SDS011;40485;53.172;5.416;2022-09-01T05:50:54;1.80;;;0.65;;
54589;SDS011;40485;53.172;5.416;2022-09-01T05:53:22;2.17;;;0.75;;
54589;SDS011;40485;53.172;5.416;2022-09-01T05:55:49;1.67;;;0.70;;
54589;SDS011;40485;53.172;5.416;2022-09-01T05:58:21;1.27;;;0.70;;
54589;SDS011;40485;53.172;5.416;2022-09-01T06:00:51;2.17;;;0.73;;
54589;SDS011;40485;53.172;5.416;2022-09-01T06:03:18;3.42;;;0.88;;
54589;SDS011;40485;53.172;5.416;2022-09-01T06:05:46;4.22;;;0.85;;
54589;SDS011;40485;53.172;5.416;2022-09-01T06:08:16;4.18;;;1.00;;
54589;SDS011;40485;53.172;5.416;2022-09-01T06:10:43;5.05;;;1.02;;
54589;SDS011;40485;53.172;5.416;2022-09-01T06:13:09;3.60;;;0.85;;
54589;SDS011;40485;53.172;5.416;2022-09-01T06:15:40;4.88;;;1.20;;
54589;SDS011;40485;53.172;5.416;2022-09-01T06:18:06;1.63;;;0.80;;
54589;SDS011;40485;53.172;5.416;2022-09-01T06:20:38;3.45;;;1.48;;
54589;SDS011;40485;53.172;5.416;2022-09-01T06:23:07;2.17;;;0.90;;
54589;SDS011;40485;53.172;5.416;2022-09-01T06:25:35;4.55;;;1.00;;
54589;SDS011;40485;53.172;5.416;2022-09-01T06:28:01;2.63;;;1.23;;
54589;SDS011;40485;53.172;5.416;2022-09-01T06:30:28;3.10;;;1.30;;
54589;SDS011;40485;53.172;5.416;2022-09-01T06:32:54;1.75;;;1.20;;
54589;SDS011;40485;53.172;5.416;2022-09-01T06:35:21;3.90;;;1.30;;
54589;SDS011;40485;53.172;5.416;2022-09-01T06:37:53;5.00;;;1.70;;
54589;SDS011;40485;53.172;5.416;2022-09-01T06:40:20;2.95;;;1.33;;
54589;SDS011;40485;53.172;5.416;2022-09-01T06:42:49;4.00;;;1.50;;
54589;SDS011;40485;53.172;5.416;2022-09-01T06:45:18;3.67;;;1.25;;
54589;SDS011;40485;53.172;5.416;2022-09-01T06:47:46;3.67;;;1.50;;
54589;SDS011;40485;53.172;5.416;2022-09-01T06:50:15;5.63;;;1.45;;
54589;SDS011;40485;53.172;5.416;2022-09-01T06:52:43;4.18;;;1.40;;
54589;SDS011;40485;53.172;5.416;2022-09-01T06:55:10;3.45;;;1.48;;
54589;SDS011;40485;53.172;5.416;2022-09-01T06:57:37;5.18;;;1.38;;
54589;SDS011;40485;53.172;5.416;2022-09-01T07:00:09;3.15;;;1.20;;
54589;SDS011;40485;53.172;5.416;2022-09-01T07:02:44;5.40;;;1.30;;
54589;SDS011;40485;53.172;5.416;2022-09-01T07:05:11;1.85;;;1.20;;
54589;SDS011;40485;53.172;5.416;2022-09-01T07:07:50;4.15;;;1.38;;
54589;SDS011;40485;53.172;5.416;2022-09-01T07:10:19;3.70;;;1.20;;
54589;SDS011;40485;53.172;5.416;2022-09-01T07:12:50;5.88;;;1.42;;
54589;SDS011;40485;53.172;5.416;2022-09-01T07:15:17;3.97;;;1.38;;
54589;SDS011;40485;53.172;5.416;2022-09-01T07:17:55;5.65;;;1.50;;
54589;SDS011;40485;53.172;5.416;2022-09-01T07:20:23;2.30;;;0.90;;
54589;SDS011;40485;53.172;5.416;2022-09-01T07:22:51;4.88;;;1.20;;
54589;SDS011;40485;53.172;5.416;2022-09-01T07:25:18;3.17;;;1.00;;
54589;SDS011;40485;53.172;5.416;2022-09-01T07:27:44;2.08;;;1.30;;
54589;SDS011;40485;53.172;5.416;2022-09-01T07:30:14;2.65;;;1.42;;
54589;SDS011;40485;53.172;5.416;2022-09-01T07:32:44;2.85;;;1.30;;
54589;SDS011;40485;53.172;5.416;2022-09-01T07:35:10;2.47;;;0.90;;
54589;SDS011;40485;53.172;5.416;2022-09-01T07:37:37;2.92;;;1.05;;
54589;SDS011;40485;53.172;5.416;2022-09-01T07:40:07;2.53;;;0.70;;
54589;SDS011;40485;53.172;5.416;2022-09-01T07:42:35;2.83;;;1.30;;
54589;SDS011;40485;53.172;5.416;2022-09-01T07:45:04;5.45;;;1.20;;
54589;SDS011;40485;53.172;5.416;2022-09-01T07:47:34;2.67;;;0.90;;
54589;SDS011;40485;53.172;5.416;2022-09-01T07:50:00;2.63;;;0.55;;
54589;SDS011;40485;53.172;5.416;2022-09-01T07:52:36;3.22;;;0.82;;
54589;SDS011;40485;53.172;5.416;2022-09-01T07:55:06;2.35;;;0.88;;
54589;SDS011;40485;53.172;5.416;2022-09-01T07:57:32;2.47;;;1.30;;
54589;SDS011;40485;53.172;5.416;2022-09-01T07:59:58;2.25;;;1.10;;
54589;SDS011;40485;53.172;5.416;2022-09-01T08:02:24;2.60;;;1.10;;
54589;SDS011;40485;53.172;5.416;2022-09-01T08:04:52;2.95;;;0.60;;
54589;SDS011;40485;53.172;5.416;2022-09-01T08:07:17;1.10;;;0.70;;
54589;SDS011;40485;53.172;5.416;2022-09-01T08:09:44;3.03;;;1.20;;
54589;SDS011;40485;53.172;5.416;2022-09-01T08:12:10;3.78;;;0.98;;
54589;SDS011;40485;53.172;5.416;2022-09-01T08:14:36;2.95;;;0.98;;
54589;SDS011;40485;53.172;5.416;2022-09-01T08:17:02;1.55;;;0.80;;
54589;SDS011;40485;53.172;5.416;2022-09-01T08:19:27;2.75;;;1.08;;
54589;SDS011;40485;53.172;5.416;2022-09-01T08:21:55;4.13;;;1.20;;
54589;SDS011;40485;53.172;5.416;2022-09-01T08:24:20;3.05;;;1.00;;
54589;SDS011;40485;53.172;5.416;2022-09-01T08:26:46;2.72;;;1.10;;
54589;SDS011;40485;53.172;5.416;2022-09-01T08:29:11;3.05;;;1.10;;
54589;SDS011;40485;53.172;5.416;2022-09-01T08:31:37;2.03;;;0.93;;
54589;SDS011;40485;53.172;5.416;2022-09-01T08:34:03;2.20;;;0.98;;
54589;SDS011;40485;53.172;5.416;2022-09-01T08:36:29;3.58;;;1.20;;
54589;SDS011;40485;53.172;5.416;2022-09-01T08:38:55;2.20;;;0.68;;
54589;SDS011;40485;53.172;5.416;2022-09-01T08:41:25;2.58;;;0.90;;
54589;SDS011;40485;53.172;5.416;2022-09-01T08:44:20;2.72;;;1.15;;
54589;SDS011;40485;53.172;5.416;2022-09-01T08:47:11;2.42;;;0.90;;
54589;SDS011;40485;53.172;5.416;2022-09-01T08:49:40;4.72;;;0.82;;
54589;SDS011;40485;53.172;5.416;2022-09-01T08:52:16;3.03;;;1.10;;
54589;SDS011;40485;53.172;5.416;2022-09-01T08:54:48;2.75;;;0.90;;
54589;SDS011;40485;53.172;5.416;2022-09-01T08:57:32;2.28;;;1.15;;
54589;SDS011;40485;53.172;5.416;2022-09-01T09:00:00;3.95;;;1.20;;
54589;SDS011;40485;53.172;5.416;2022-09-01T09:04:57;3.30;;;0.80;;
54589;SDS011;40485;53.172;5.416;2022-09-01T09:10:19;3.15;;;1.10;;
54589;SDS011;40485;53.172;5.416;2022-09-01T09:15:53;1.67;;;0.88;;
54589;SDS011;40485;53.172;5.416;2022-09-01T09:18:22;3.53;;;0.80;;
54589;SDS011;40485;53.172;5.416;2022-09-01T09:21:13;2.47;;;0.93;;
54589;SDS011;40485;53.172;5.416;2022-09-01T09:23:44;1.48;;;0.85;;
54589;SDS011;40485;53.172;5.416;2022-09-01T09:26:12;3.28;;;0.70;;
54589;SDS011;40485;53.172;5.416;2022-09-01T09:28:37;2.08;;;0.55;;
54589;SDS011;40485;53.172;5.416;2022-09-01T09:34:15;2.00;;;1.20;;
54589;SDS011;40485;53.172;5.416;2022-09-01T09:36:59;1.85;;;0.93;;
54589;SDS011;40485;53.172;5.416;2022-09-01T09:39:26;4.95;;;0.70;;
54589;SDS011;40485;53.172;5.416;2022-09-01T09:42:04;3.40;;;1.15;;
54589;SDS011;40485;53.172;5.416;2022-09-01T09:44:33;1.98;;;0.60;;
54589;SDS011;40485;53.172;5.416;2022-09-01T09:50:19;1.45;;;0.77;;
54589;SDS011;40485;53.172;5.416;2022-09-01T09:52:46;1.67;;;0.70;;
54589;SDS011;40485;53.172;5.416;2022-09-01T09:58:17;1.45;;;0.60;;
54589;SDS011;40485;53.172;5.416;2022-09-01T10:03:52;2.65;;;0.98;;
54589;SDS011;40485;53.172;5.416;2022-09-01T10:09:00;1.67;;;0.68;;
54589;SDS011;40485;53.172;5.416;2022-09-01T10:11:40;1.25;;;0.60;;
54589;SDS011;40485;53.172;5.416;2022-09-01T10:14:09;3.90;;;0.70;;
54589;SDS011;40485;53.172;5.416;2022-09-01T10:16:43;0.70;;;0.40;;
54589;SDS011;40485;53.172;5.416;2022-09-01T10:19:15;1.45;;;0.40;;
54589;SDS011;40485;53.172;5.416;2022-09-01T10:21:42;1.20;;;0.55;;
54589;SDS011;40485;53.172;5.416;2022-09-01T10:24:18;2.63;;;0.60;;
54589;SDS011;40485;53.172;5.416;2022-09-01T10:27:01;1.23;;;0.60;;
54589;SDS011;40485;53.172;5.416;2022-09-01T10:29:36;2.22;;;0.50;;
54589;SDS011;40485;53.172;5.416;2022-09-01T10:32:09;2.97;;;0.50;;
54589;SDS011;40485;53.172;5.416;2022-09-01T10:34:44;3.88;;;0.50;;
54589;SDS011;40485;53.172;5.416;2022-09-01T10:37:11;0.95;;;0.40;;
54589;SDS011;40485;53.172;5.416;2022-09-01T10:42:41;1.10;;;0.60;;
54589;SDS011;40485;53.172;5.416;2022-09-01T10:45:17;2.65;;;0.80;;
54589;SDS011;40485;53.172;5.416;2022-09-01T10:50:51;2.20;;;0.50;;
54589;SDS011;40485;53.172;5.416;2022-09-01T10:53:39;3.42;;;0.60;;
54589;SDS011;40485;53.172;5.416;2022-09-01T10:56:25;3.10;;;0.80;;
54589;SDS011;40485;53.172;5.416;2022-09-01T11:04:04;1.85;;;0.50;;
54589;SDS011;40485;53.172;5.416;2022-09-01T11:09:07;2.53;;;0.60;;
54589;SDS011;40485;53.172;5.416;2022-09-01T11:14:52;2.55;;;0.40;;
54589;SDS011;40485;53.172;5.416;2022-09-01T11:19:53;4.28;;;0.50;;
54589;SDS011;40485;53.172;5.416;2022-09-01T11:22:45;1.95;;;0.40;;
54589;SDS011;40485;53.172;5.416;2022-09-01T11:25:35;2.50;;;0.60;;
54589;SDS011;40485;53.172;5.416;2022-09-01T11:28:07;1.60;;;0.43;;
54589;SDS011;40485;53.172;5.416;2022-09-01T11:30:41;1.73;;;0.47;;
54589;SDS011;40485;53.172;5.416;2022-09-01T11:35:42;1.10;;;0.45;;
54589;SDS011;40485;53.172;5.416;2022-09-01T11:38:09;1.85;;;0.70;;
54589;SDS011;40485;53.172;5.416;2022-09-01T11:40:39;5.07;;;0.50;;
54589;SDS011;40485;53.172;5.416;2022-09-01T11:43:14;2.45;;;0.60;;
54589;SDS011;40485;53.172;5.416;2022-09-01T11:45:55;1.83;;;0.57;;
54589;SDS011;40485;53.172;5.416;2022-09-01T11:48:28;2.25;;;0.70;;
54589;SDS011;40485;53.172;5.416;2022-09-01T11:50:56;1.75;;;0.57;;
54589;SDS011;40485;53.172;5.416;2022-09-01T11:53:24;0.75;;;0.40;;
54589;SDS011;40485;53.172;5.416;2022-09-01T11:55:51;0.90;;;0.40;;
54589;SDS011;40485;53.172;5.416;2022-09-01T12:00:55;2.92;;;0.60;;
54589;SDS011;40485;53.172;5.416;2022-09-01T12:03:36;1.58;;;0.50;;
54589;SDS011;40485;53.172;5.416;2022-09-01T12:06:03;4.88;;;0.60;;
54589;SDS011;40485;53.172;5.416;2022-09-01T12:08:32;2.33;;;0.47;;
54589;SDS011;40485;53.172;5.416;2022-09-01T12:11:19;1.17;;;0.50;;
54589;SDS011;40485;53.172;5.416;2022-09-01T12:13:54;3.83;;;0.60;;
54589;SDS011;40485;53.172;5.416;2022-09-01T12:16:30;1.45;;;0.52;;
54589;SDS011;40485;53.172;5.416;2022-09-01T12:19:01;1.45;;;0.40;;
54589;SDS011;40485;53.172;5.416;2022-09-01T12:21:32;2.83;;;0.60;;
54589;SDS011;40485;53.172;5.416;2022-09-01T14:05:30;2.35;;;0.50;;
54589;SDS011;40485;53.172;5.416;2022-09-01T14:07:58;1.20;;;0.43;;
54589;SDS011;40485;53.172;5.416;2022-09-01T14:10:24;2.55;;;0.52;;
54589;SDS011;40485;53.172;5.416;2022-09-01T14:12:51;3.28;;;0.40;;
54589;SDS011;40485;53.172;5.416;2022-09-01T14:15:18;0.90;;;0.50;;
54589;SDS011;40485;53.172;5.416;2022-09-01T14:17:45;2.17;;;0.50;;
54589;SDS011;40485;53.172;5.416;2022-09-01T14:20:15;5.13;;;0.50;;
54589;SDS011;40485;53.172;5.416;2022-09-01T14:22:46;1.58;;;0.45;;
54589;SDS011;40485;53.172;5.416;2022-09-01T14:25:14;3.45;;;0.70;;
54589;SDS011;40485;53.172;5.416;2022-09-01T14:27:41;1.60;;;0.65;;
54589;SDS011;40485;53.172;5.416;2022-09-01T14:30:08;1.88;;;0.40;;
54589;SDS011;40485;53.172;5.416;2022-09-01T14:32:36;1.45;;;0.50;;
54589;SDS011;40485;53.172;5.416;2022-09-01T14:35:02;1.80;;;0.68;;
54589;SDS011;40485;53.172;5.416;2022-09-01T14:37:28;2.33;;;0.30;;
54589;SDS011;40485;53.172;5.416;2022-09-01T14:39:55;4.72;;;0.60;;
54589;SDS011;40485;53.172;5.416;2022-09-01T14:42:21;3.22;;;0.40;;
54589;SDS011;40485;53.172;5.416;2022-09-01T14:44:52;3.15;;;0.68;;
54589;SDS011;40485;53.172;5.416;2022-09-01T14:47:18;1.95;;;0.65;;
54589;SDS011;40485;53.172;5.416;2022-09-01T14:49:50;2.95;;;0.50;;
54589;SDS011;40485;53.172;5.416;2022-09-01T14:52:17;1.15;;;0.40;;
54589;SDS011;40485;53.172;5.416;2022-09-01T14:54:42;1.92;;;0.50;;
54589;SDS011;40485;53.172;5.416;2022-09-01T14:57:08;1.35;;;0.40;;
54589;SDS011;40485;53.172;5.416;2022-09-01T14:59:35;8.10;;;0.85;;
54589;SDS011;40485;53.172;5.416;2022-09-01T15:02:01;1.80;;;0.38;;
54589;SDS011;40485;53.172;5.416;2022-09-01T15:04:27;2.67;;;0.63;;
54589;SDS011;40485;53.172;5.416;2022-09-01T15:06:53;1.80;;;0.47;;
54589;SDS011;40485;53.172;5.416;2022-09-01T15:09:19;1.08;;;0.40;;
54589;SDS011;40485;53.172;5.416;2022-09-01T15:11:45;1.23;;;0.40;;
54589;SDS011;40485;53.172;5.416;2022-09-01T15:14:11;2.13;;;0.50;;
54589;SDS011;40485;53.172;5.416;2022-09-01T15:16:36;1.63;;;0.40;;
54589;SDS011;40485;53.172;5.416;2022-09-01T15:19:06;3.83;;;0.50;;
54589;SDS011;40485;53.172;5.416;2022-09-01T15:21:35;0.43;;;0.20;;
54589;SDS011;40485;53.172;5.416;2022-09-01T15:24:01;3.83;;;0.40;;
54589;SDS011;40485;53.172;5.416;2022-09-01T15:26:28;2.35;;;0.50;;
54589;SDS011;40485;53.172;5.416;2022-09-01T15:28:54;1.25;;;0.40;;
54589;SDS011;40485;53.172;5.416;2022-09-01T15:31:21;1.90;;;0.50;;
54589;SDS011;40485;53.172;5.416;2022-09-01T15:33:48;0.95;;;0.38;;
54589;SDS011;40485;53.172;5.416;2022-09-01T15:36:18;2.88;;;0.40;;
54589;SDS011;40485;53.172;5.416;2022-09-01T15:38:45;1.25;;;0.30;;
54589;SDS011;40485;53.172;5.416;2022-09-01T15:41:15;1.48;;;0.55;;
54589;SDS011;40485;53.172;5.416;2022-09-01T15:43:45;2.53;;;0.50;;
54589;SDS011;40485;53.172;5.416;2022-09-01T15:46:11;2.58;;;0.60;;
54589;SDS011;40485;53.172;5.416;2022-09-01T15:48:38;1.38;;;0.40;;
54589;SDS011;40485;53.172;5.416;2022-09-01T15:51:46;1.00;;;0.45;;
54589;SDS011;40485;53.172;5.416;2022-09-01T15:53:59;1.27;;;0.50;;
54589;SDS011;40485;53.172;5.416;2022-09-01T15:56:33;3.83;;;0.75;;
54589;SDS011;40485;53.172;5.416;2022-09-01T15:59:00;1.55;;;0.60;;
54589;SDS011;40485;53.172;5.416;2022-09-01T16:01:26;2.38;;;0.50;;
54589;SDS011;40485;53.172;5.416;2022-09-01T16:03:53;4.95;;;0.70;;
54589;SDS011;40485;53.172;5.416;2022-09-01T16:06:20;7.72;;;0.60;;
54589;SDS011;40485;53.172;5.416;2022-09-01T16:08:46;2.92;;;0.50;;
54589;SDS011;40485;53.172;5.416;2022-09-01T16:11:13;5.53;;;0.60;;
54589;SDS011;40485;53.172;5.416;2022-09-01T16:13:39;1.95;;;0.35;;
54589;SDS011;40485;53.172;5.416;2022-09-01T16:24:02;2.50;;;0.70;;
54589;SDS011;40485;53.172;5.416;2022-09-01T16:26:31;3.10;;;0.60;;
54589;SDS011;40485;53.172;5.416;2022-09-01T16:28:59;6.38;;;0.70;;
54589;SDS011;40485;53.172;5.416;2022-09-01T16:31:31;3.47;;;0.55;;
54589;SDS011;40485;53.172;5.416;2022-09-01T16:33:58;4.72;;;0.50;;
54589;SDS011;40485;53.172;5.416;2022-09-01T16:45:01;3.78;;;0.50;;
54589;SDS011;40485;53.172;5.416;2022-09-01T16:50:00;7.30;;;1.10;;
54589;SDS011;40485;53.172;5.416;2022-09-01T16:53:07;3.60;;;0.85;;
54589;SDS011;40485;53.172;5.416;2022-09-01T17:07:20;2.67;;;0.52;;
54589;SDS011;40485;53.172;5.416;2022-09-01T17:09:58;1.33;;;0.50;;
54589;SDS011;40485;53.172;5.416;2022-09-01T17:12:34;3.53;;;0.52;;
54589;SDS011;40485;53.172;5.416;2022-09-01T17:15:07;3.22;;;0.60;;
54589;SDS011;40485;53.172;5.416;2022-09-01T17:17:44;5.93;;;1.20;;
54589;SDS011;40485;53.172;5.416;2022-09-01T17:20:10;3.25;;;0.70;;
54589;SDS011;40485;53.172;5.416;2022-09-01T17:22:38;4.07;;;0.52;;
54589;SDS011;40485;53.172;5.416;2022-09-01T17:25:11;2.63;;;0.65;;
54589;SDS011;40485;53.172;5.416;2022-09-01T17:27:49;3.90;;;0.93;;
54589;SDS011;40485;53.172;5.416;2022-09-01T17:30:19;3.35;;;0.60;;
54589;SDS011;40485;53.172;5.416;2022-09-01T17:32:49;1.13;;;0.55;;
54589;SDS011;40485;53.172;5.416;2022-09-01T17:38:08;1.02;;;0.63;;
54589;SDS011;40485;53.172;5.416;2022-09-01T17:43:59;3.33;;;0.82;;
54589;SDS011;40485;53.172;5.416;2022-09-01T17:52:16;4.50;;;0.80;;
54589;SDS011;40485;53.172;5.416;2022-09-01T17:54:49;8.73;;;1.27;;
54589;SDS011;40485;53.172;5.416;2022-09-01T17:57:28;3.28;;;0.50;;
54589;SDS011;40485;53.172;5.416;2022-09-01T18:00:22;5.78;;;0.70;;
54589;SDS011;40485;53.172;5.416;2022-09-01T18:05:22;4.55;;;0.60;;
54589;SDS011;40485;53.172;5.416;2022-09-01T18:07:57;4.88;;;0.88;;
54589;SDS011;40485;53.172;5.416;2022-09-01T18:10:43;1.20;;;0.50;;
54589;SDS011;40485;53.172;5.416;2022-09-01T18:16:14;2.72;;;0.57;;
54589;SDS011;40485;53.172;5.416;2022-09-01T18:18:45;1.23;;;0.47;;
54589;SDS011;40485;53.172;5.416;2022-09-01T18:21:17;6.97;;;0.80;;
54589;SDS011;40485;53.172;5.416;2022-09-01T18:23:45;1.98;;;0.90;;
54589;SDS011;40485;53.172;5.416;2022-09-01T18:26:27;3.75;;;0.73;;